Flugplatz Hasselt Kiewit (EBZH)

Hier findest Du alle Informationen zum Flugplatz Hasselt Kiewit (EBZH).

Informationen für Piloten zum Flugplatz Hasselt Kiewit

Hier findest Du alle relevanten Informationen, die Du als Pilot benötigst, um Hasselt Kiewit anzufliegen.

Flugplatz: Hasselt Kiewit ICAO-Code: EBZH
Frequenz Turm: 118,325 Mhz GAFOR Gebiet: -
Frequenz Ground: 118,325 Mhz Mogas: nein
Platzrunde: N 1200 ft Landegebühr: -
Platzhöhe: Sunrise: 03:22 Uhr UTC
Pisten: 09/27 - 600 m x 30 m, GRAS Sunset: 19:59 Uhr UTC

Mitglieder, die in Hasselt Kiewit fliegen

Flugwetter am Flugplatz Hasselt Kiewit

Die METAR Information stammen aus EDLN (83.97 km entfernt).

METAR Code:
2022/06/19 18:50
EDLN 191850Z AUTO 04008KT 360V080 9999 // BKN110/// 17/12 Q1011

Flugschulen am Flugplatz Hasselt Kiewit

Am Flugplatz Hasselt Kiewit gibt es leider keine Flugschule.

Benachbarte Flugplätze und Flugschulen

Es gibt 5 weitere Flugplätze in einem Umkreis von 50 km um den Flugplatz Hasselt Kiewit.

Jetzt anmelden

Passwort vergessen

Umfrage Archiv

Sendet Ihr ADS-B und/oder FLARM?

Ja
83.2 %
Nein
16.8 %
Stimmen: 173 | Diskussion
Anzeige: Roland Aircraft
Statistik Alle Mitglieder

Aktuell sind 48 Besucher online, davon 2 Mitglieder und 46 Gäste.


Mitglieder online:
Heli  Remigius 

Anzeige: ULPower Aero Engines Anzeige: Pocket FMS